DW9120 Mondonedo ES current weather conditions

sailwx.info

Wind from 225 at 5 knots gusting 10

Air temperature 13.9° C
Dewpoint 9.3° C

Last reported at 2017-Dec-14 15:53 UTC.
Time now 2017-Dec-14 17:14 UTC

Location: N 43°29' W 007°20'.
View on Google Maps.

See reports from other nearby stations

  
Tides and Currents Weather Stations Pressure Air Temp Water Temp Dewpoint Dewpoint Depression Visibility Wind Speed Wind Dir Waves Ship Positions
date/time (UTC)wind fromknots sea level pressurealtimeterstation pressurevisibilityair tempwater tempwave heightnotes
2017-Dec-14 16:08 202 4 gusting 13 13.3
2017-Dec-14 15:53 225 5 gusting 10 13.9
2017-Dec-14 15:38 226 7 gusting 14 14.4
2017-Dec-14 15:23 218 4 gusting 18 15.0
2017-Dec-14 15:08 242 6 gusting 12 15.6
2017-Dec-14 14:53 174 15.6
2017-Dec-14 14:38 206 4 gusting 10 15.0
2017-Dec-14 14:23 174 3 gusting 8 15.6
2017-Dec-14 14:08 235 6 gusting 13 16.1
2017-Dec-14 13:53 239 6 gusting 12 16.7
2017-Dec-14 13:38 235 11 gusting 17 16.7
2017-Dec-14 13:22 256 4 gusting 8 16.1
2017-Dec-14 13:07 264 3 gusting 8 15.0
2017-Dec-14 12:52 169 6 gusting 12 15.0
2017-Dec-14 12:38 213 5 gusting 10 15.0
2017-Dec-14 12:23 191 6 gusting 11 15.0
2017-Dec-14 12:07 202 15.0
2017-Dec-14 11:52 205 2 gusting 6 14.4
2017-Dec-14 11:37 188 5 gusting 9 14.4
2017-Dec-14 11:22 169 6 gusting 9 14.4
2017-Dec-14 11:07 169 4 gusting 13 14.4
2017-Dec-14 10:52 200 6 gusting 12 14.4
2017-Dec-14 10:37 220 6 gusting 10 15.0
2017-Dec-14 10:22 159 4 gusting 12 15.0
2017-Dec-14 10:07 187 6 gusting 13 15.0
2017-Dec-14 09:52 203 6 gusting 13 14.4
2017-Dec-14 09:37 195 8 gusting 12 12.8
2017-Dec-14 09:22 204 4 gusting 7 11.1
2017-Dec-14 09:06 042 10.6
2017-Dec-14 08:52 042 10.0
2017-Dec-14 08:38
2017-Dec-14 08:34 065 10.0
2017-Dec-14 08:19 158 10.0
2017-Dec-14 08:04 040 10.0
2017-Dec-14 07:49 040 10.0
2017-Dec-14 07:34 040 10.0
2017-Dec-14 07:19 040 10.0
2017-Dec-14 07:04 040 10.0
2017-Dec-14 06:48 040 10.0
2017-Dec-14 06:34 040 10.0
2017-Dec-14 06:18 033 10.0
2017-Dec-14 06:03 032 10.0
2017-Dec-14 05:48 176 10.6
2017-Dec-14 05:33 176 10.6
2017-Dec-14 05:18 176 10.6
2017-Dec-14 05:03 088 10.6
2017-Dec-14 04:48 088 10.6
2017-Dec-14 04:33 088 10.6
2017-Dec-14 04:18 088 11.1
2017-Dec-14 04:03 088 11.1
2017-Dec-14 03:49 186 11.1
2017-Dec-14 03:37 186 11.7
2017-Dec-14 03:26 186 11.7
2017-Dec-14 03:02 186 12.2
2017-Dec-14 02:47 186 12.2
2017-Dec-14 02:32 186 12.8
2017-Dec-14 02:17 281 5 gusting 12 12.8
2017-Dec-14 02:02 302 13.3
2017-Dec-14 01:47 303 13.3
2017-Dec-14 01:32 242 13.3
2017-Dec-14 01:17 241 13.9
2017-Dec-14 01:02 207 6 gusting 9 13.9
2017-Dec-14 00:47 219 3 gusting 6 13.3
2017-Dec-14 00:32 228 1 gusting 7 13.3
2017-Dec-14 00:17 240 5 gusting 7 13.3
2017-Dec-14 00:02 222 2 gusting 5 13.9
2017-Dec-13 23:47 243 2 gusting 4 13.9
2017-Dec-13 23:32 229 0 gusting 7 14.4
2017-Dec-13 23:17 193 14.4
2017-Dec-13 23:01 265 2 gusting 7 13.9
2017-Dec-13 22:47 248 13.9
2017-Dec-13 22:31 303 14.4
2017-Dec-13 22:16 244 3 gusting 6 13.9
2017-Dec-13 22:01 261 13.9
2017-Dec-13 21:47 245 4 gusting 11 13.3
2017-Dec-13 21:31 209 13.3
2017-Dec-13 21:16 270 2 gusting 6 13.9
2017-Dec-13 21:01 263 13.9
2017-Dec-13 20:46 277 0 gusting 6 14.4
2017-Dec-13 20:31 215 0 gusting 6 14.4
2017-Dec-13 20:16 259 4 gusting 8 14.4
2017-Dec-13 20:01 224 3 gusting 9 14.4
2017-Dec-13 19:46 259 3 gusting 7 14.4
2017-Dec-13 19:31 211 3 gusting 8 13.9
2017-Dec-13 19:16 250 6 gusting 10 13.9
2017-Dec-13 19:01 228 3 gusting 6 13.9
2017-Dec-13 18:46 261 3 gusting 9 13.9
2017-Dec-13 18:31 238 5 gusting 7 13.9
2017-Dec-13 18:16 224 1 gusting 10 13.9
2017-Dec-13 18:01 225 4 gusting 8 13.9
2017-Dec-13 17:46 230 6 gusting 10 13.9
2017-Dec-13 17:31 252 5 gusting 13 13.9
2017-Dec-13 17:16 247 6 gusting 13 13.9
2017-Dec-13 17:01 221 8 gusting 13 13.9
2017-Dec-13 16:46 230 7 gusting 13 13.9
2017-Dec-13 16:31 229 5 gusting 11 13.9
2017-Dec-13 16:16 238 6 gusting 13 13.9
2017-Dec-13 16:01 223 11 gusting 20 13.9
2017-Dec-13 15:46 212 7 gusting 15 13.9
2017-Dec-13 15:31 257 9 gusting 15 13.9
2017-Dec-13 15:15 220 13 gusting 21 14.4
2017-Dec-13 15:01 227 12 gusting 18 15.0
2017-Dec-13 14:45 233 10 gusting 19 15.0
2017-Dec-13 14:30 221 13 gusting 20 15.0
2017-Dec-13 14:15 209 13 gusting 23 15.0
2017-Dec-13 14:00 241 16 gusting 26 15.0
2017-Dec-13 13:45 241 17 gusting 26 15.0
2017-Dec-13 13:30 242 14 gusting 24 15.0
2017-Dec-13 13:15 257 20 gusting 27 15.0
2017-Dec-13 13:00 239 9 gusting 20 15.0
2017-Dec-13 12:45 218 11 gusting 19 15.0
2017-Dec-13 12:30 175 8 gusting 18 15.0
2017-Dec-13 12:15 195 14 gusting 22 15.0
2017-Dec-13 12:00 202 9 gusting 18 15.0
2017-Dec-13 11:45 229 8 gusting 14 14.4
2017-Dec-13 11:30 202 13 gusting 26 14.4
2017-Dec-13 11:15 197 11 gusting 19 13.9
2017-Dec-13 11:00 217 14 gusting 24 13.9
2017-Dec-13 10:45 216 2 gusting 10 13.9
2017-Dec-13 10:30 278 2 gusting 13 14.4
2017-Dec-13 10:15 192 4 gusting 13 13.9
2017-Dec-13 10:00 181 0 gusting 19 13.3
2017-Dec-13 09:45 233 14 gusting 22 13.3
2017-Dec-13 09:30 208 10 gusting 24 12.8
2017-Dec-13 09:15 222 11 gusting 22 12.8
2017-Dec-13 09:00 214 10 gusting 20 12.8
2017-Dec-13 08:45 234 6 gusting 23 12.8
2017-Dec-13 08:30 211 10 gusting 21 12.8
2017-Dec-13 08:15 197 8 gusting 22 12.8
2017-Dec-13 08:00 223 5 gusting 12 12.8
2017-Dec-13 07:45 263 4 gusting 15 12.2
2017-Dec-13 07:30 218 10 gusting 19 12.2
2017-Dec-13 07:15 256 6 gusting 21 12.2
2017-Dec-13 07:00 318 5 gusting 21 12.2
2017-Dec-13 06:45 267 12 gusting 22 11.7
2017-Dec-13 06:30 266 6 gusting 15 11.7
2017-Dec-13 06:15 265 7 gusting 13 11.7
2017-Dec-13 06:00 266 6 gusting 12 11.1
2017-Dec-13 05:45 267 6 gusting 12 11.1
2017-Dec-13 05:30 320 11.1
2017-Dec-13 05:14 223 7 gusting 17 11.1
2017-Dec-13 05:00 283 6 gusting 8 11.1
2017-Dec-13 04:45 185 6 gusting 10 10.6
2017-Dec-13 04:30 211 5 gusting 13 11.1
2017-Dec-13 04:15 252 4 gusting 15 11.1
2017-Dec-13 04:00 247 7 gusting 16 11.1
2017-Dec-13 03:45 343 1 gusting 7 11.1
2017-Dec-13 03:29 005 0 gusting 8 11.1
2017-Dec-13 03:16 236 2 gusting 7 11.1
2017-Dec-13 02:59 134 10.6
2017-Dec-13 02:45 264 4 gusting 8 10.6
2017-Dec-13 02:29 204 5 gusting 10 10.6
2017-Dec-13 02:15 216 10.0
2017-Dec-13 01:59 198 6 gusting 9 10.0
2017-Dec-13 01:44 200 6 gusting 11 10.0
2017-Dec-13 01:29 220 2 gusting 17 10.0
2017-Dec-13 01:15 209 7 gusting 13 10.0
2017-Dec-13 00:59 242 7 gusting 15 10.0
2017-Dec-13 00:44 223 6 gusting 14 10.0
2017-Dec-13 00:29 232 11 gusting 15 10.6
2017-Dec-13 00:14 215 8 gusting 16 10.6
2017-Dec-12 23:59 226 8 gusting 20 10.6
2017-Dec-12 23:44 196 12 gusting 20 10.0
2017-Dec-12 23:29 198 13 gusting 21 10.0
2017-Dec-12 23:14 240 13 gusting 22 10.6
2017-Dec-12 22:59 200 9 gusting 16 10.6
2017-Dec-12 22:44 214 13 gusting 21 10.6
2017-Dec-12 22:29 207 7 gusting 14 10.6
2017-Dec-12 22:14 194 6 gusting 14 10.6
2017-Dec-12 21:59 206 7 gusting 18 10.6
2017-Dec-12 21:44 275 5 gusting 13 10.6
2017-Dec-12 21:29 236 6 gusting 15 10.6
2017-Dec-12 21:14 209 6 gusting 14 10.6
2017-Dec-12 20:58 194 2 gusting 8 10.6
2017-Dec-12 20:43 132 5 gusting 10 10.6
2017-Dec-12 20:28 233 6 gusting 11 10.6
2017-Dec-12 20:14 213 6 gusting 15 10.6
2017-Dec-12 19:58 188 5 gusting 14 10.6
2017-Dec-12 19:43 227 5 gusting 13 11.1
2017-Dec-12 19:28 213 5 gusting 11 11.1
2017-Dec-12 19:13 221 2 gusting 12 11.1
2017-Dec-12 18:58 228 7 gusting 13 10.6
2017-Dec-12 18:43 275 10.6
2017-Dec-12 18:28 243 5 gusting 14 10.0
2017-Dec-12 18:13 230 1 gusting 4 10.0
2017-Dec-12 17:58 215 10.0
2017-Dec-12 17:43 209 10.0
2017-Dec-12 17:28 209 0 gusting 4 10.0
2017-Dec-12 17:13 221 2 gusting 6 10.6